createdAt,value
2019-05-30T00:00:07.369Z,93.19
2019-05-30T00:00:53.873Z,93.30
2019-05-30T00:01:52.048Z,92.57
2019-05-30T00:02:52.037Z,92.37
2019-05-30T00:03:52.025Z,92.16
2019-05-30T00:04:52.014Z,92.27
2019-05-30T00:05:52.067Z,92.27
2019-05-30T00:06:52.001Z,92.37
2019-05-30T00:07:51.983Z,92.27
2019-05-30T00:08:51.971Z,91.54
2019-05-30T00:09:51.960Z,92.06
2019-05-30T00:10:51.948Z,91.38
2019-05-30T00:11:52.143Z,91.58
2019-05-30T00:12:51.926Z,91.38
2019-05-30T00:13:51.917Z,91.69
2019-05-30T00:14:51.906Z,91.07
2019-05-30T00:15:51.894Z,91.17
2019-05-30T00:16:51.882Z,91.11
2019-05-30T00:17:51.931Z,91.63
2019-05-30T00:18:51.862Z,91.83
2019-05-30T00:19:51.851Z,91.52
2019-05-30T00:20:51.839Z,92.25
2019-05-30T00:21:51.828Z,91.73
2019-05-30T00:22:51.821Z,92.14
2019-05-30T00:23:51.872Z,91.73
2019-05-30T00:24:51.794Z,92.55
2019-05-30T00:25:51.783Z,92.66
2019-05-30T00:26:51.786Z,92.55
2019-05-30T00:27:51.761Z,92.55
2019-05-30T00:28:51.751Z,92.66
2019-05-30T00:29:51.943Z,92.97
2019-05-30T00:30:51.731Z,93.12
2019-05-30T00:31:51.718Z,92.91
2019-05-30T00:32:51.707Z,93.43
2019-05-30T00:33:51.695Z,92.95
2019-05-30T00:34:51.684Z,93.47
2019-05-30T00:35:51.733Z,94.09
2019-05-30T00:36:51.659Z,94.29
2019-05-30T00:37:51.649Z,94.92
2019-05-30T00:38:51.638Z,94.97
2019-05-30T00:39:51.627Z,94.81
2019-05-30T00:40:51.615Z,94.56
2019-05-30T00:41:51.667Z,94.50
2019-05-30T00:42:51.594Z,93.47
2019-05-30T00:43:51.581Z,94.81
2019-05-30T00:44:51.589Z,94.03
2019-05-30T00:45:51.562Z,95.27
2019-05-30T00:46:51.553Z,94.54
2019-05-30T00:47:51.594Z,94.38
2019-05-30T00:48:51.537Z,94.90
2019-05-30T00:49:51.539Z,95.00
2019-05-30T00:50:51.503Z,96.03
2019-05-30T00:51:51.497Z,96.97
2019-05-30T00:52:51.482Z,96.55
2019-05-30T00:53:51.534Z,96.66
2019-05-30T00:54:51.459Z,97.28
2019-05-30T00:55:51.447Z,97.38
2019-05-30T00:56:51.437Z,95.77
2019-05-30T00:57:51.429Z,96.02
2019-05-30T00:58:51.413Z,96.54
2019-05-30T00:59:51.476Z,96.23
2019-05-30T01:00:51.410Z,96.37
2019-05-30T01:01:51.378Z,96.06
2019-05-30T01:02:51.424Z,96.79
2019-05-30T01:03:51.356Z,97.52
2019-05-30T01:04:51.347Z,97.41
2019-05-30T01:05:51.398Z,96.73
2019-05-30T01:06:51.324Z,97.62
2019-05-30T01:07:51.311Z,98.24
2019-05-30T01:08:51.306Z,98.44
2019-05-30T01:09:51.290Z,98.61
2019-05-30T01:10:51.276Z,98.40
2019-05-30T01:11:51.320Z,98.61
2019-05-30T01:12:51.253Z,98.40
2019-05-30T01:13:51.242Z,98.71
2019-05-30T01:14:51.231Z,98.66
2019-05-30T01:15:51.221Z,98.52
2019-05-30T01:16:51.322Z,98.52
2019-05-30T01:17:51.263Z,98.05
2019-05-30T01:18:51.199Z,98.56
2019-05-30T01:19:51.182Z,98.56
2019-05-30T01:20:51.166Z,97.84
2019-05-30T01:21:51.153Z,97.28
2019-05-30T01:22:51.141Z,96.76
2019-05-30T01:23:51.190Z,96.86
2019-05-30T01:24:51.139Z,96.19
2019-05-30T01:25:51.106Z,96.14
2019-05-30T01:26:51.094Z,96.03
2019-05-30T01:27:51.084Z,95.83
2019-05-30T01:28:51.072Z,96.24
2019-05-30T01:29:51.128Z,95.83
2019-05-30T01:31:00.213Z,95.62
2019-05-30T01:31:52.041Z,95.94
2019-05-30T01:32:51.027Z,96.14
2019-05-30T01:33:51.027Z,96.03
2019-05-30T01:34:51.003Z,96.03
2019-05-30T01:35:51.047Z,95.94
2019-05-30T01:36:50.984Z,95.83
2019-05-30T01:37:50.971Z,96.14
2019-05-30T01:38:50.965Z,96.24
2019-05-30T01:39:50.950Z,96.39
2019-05-30T01:40:50.935Z,96.76
2019-05-30T01:41:50.985Z,97.28
2019-05-30T01:42:50.941Z,96.55
2019-05-30T01:43:50.902Z,96.76
2019-05-30T01:44:50.890Z,96.34
2019-05-30T01:45:50.881Z,96.55
2019-05-30T01:46:50.868Z,96.34
2019-05-30T01:47:50.916Z,96.34
2019-05-30T01:48:50.863Z,96.20
2019-05-30T01:49:50.835Z,96.20
2019-05-30T01:50:50.822Z,95.99
2019-05-30T01:51:50.812Z,95.83
2019-05-30T01:52:50.962Z,95.94
2019-05-30T01:53:50.851Z,95.87
2019-05-30T01:54:50.777Z,95.62
2019-05-30T01:55:50.765Z,96.14
2019-05-30T01:56:50.754Z,96.08
2019-05-30T01:57:50.742Z,95.87
2019-05-30T01:58:50.731Z,96.39
2019-05-30T01:59:50.782Z,96.19
2019-05-30T02:00:50.709Z,96.29
2019-05-30T02:01:50.697Z,96.39
2019-05-30T02:02:50.686Z,96.29
2019-05-30T02:03:50.676Z,95.71
2019-05-30T02:04:50.664Z,95.92
2019-05-30T02:05:50.712Z,96.33
2019-05-30T02:06:50.640Z,96.23
2019-05-30T02:07:50.631Z,96.12
2019-05-30T02:08:50.617Z,96.23
2019-05-30T02:09:50.607Z,96.23
2019-05-30T02:10:50.595Z,96.23
2019-05-30T02:11:50.649Z,96.02
2019-05-30T02:12:50.601Z,96.06
2019-05-30T02:13:50.562Z,95.96
2019-05-30T02:14:50.551Z,96.17
2019-05-30T02:15:50.540Z,95.86
2019-05-30T02:16:50.533Z,95.18
2019-05-30T02:17:50.580Z,95.39
2019-05-30T02:18:50.504Z,95.12
2019-05-30T02:19:50.493Z,95.57
2019-05-30T02:20:50.483Z,95.47
2019-05-30T02:21:50.470Z,96.14
2019-05-30T02:22:50.459Z,96.14
2019-05-30T02:23:50.517Z,97.17
2019-05-30T02:24:50.438Z,97.49
2019-05-30T02:25:50.425Z,97.33
2019-05-30T02:26:50.413Z,97.74
2019-05-30T02:27:50.403Z,98.26
2019-05-30T02:28:50.393Z,98.05
2019-05-30T02:29:50.443Z,98.36
2019-05-30T02:30:50.370Z,98.99
2019-05-30T02:31:50.369Z,99.04
2019-05-30T02:32:50.349Z,99.04
2019-05-30T02:33:50.336Z,99.46
2019-05-30T02:34:50.326Z,99.87
2019-05-30T02:35:50.388Z,99.87
2019-05-30T02:36:50.312Z,99.99
2019-05-30T02:37:50.295Z,99.99
2019-05-30T02:38:50.290Z,99.99
2019-05-30T02:39:50.272Z,99.57
2019-05-30T02:40:50.257Z,99.21
2019-05-30T02:41:50.306Z,98.32
2019-05-30T02:42:50.238Z,98.05
2019-05-30T02:43:50.228Z,98.26
2019-05-30T02:44:50.216Z,97.74
2019-05-30T02:45:50.203Z,97.58
2019-05-30T02:46:50.193Z,97.41
2019-05-30T02:47:50.245Z,97.72
2019-05-30T02:48:59.096Z,98.03
2019-05-30T02:49:51.157Z,98.24
2019-05-30T02:50:50.147Z,98.10
2019-05-30T02:51:50.137Z,98.24
2019-05-30T02:52:50.125Z,98.03
2019-05-30T02:53:50.174Z,98.03
2019-05-30T02:54:50.103Z,98.55
2019-05-30T02:55:50.092Z,98.14
2019-05-30T02:56:50.093Z,98.55
2019-05-30T02:57:50.069Z,98.35
2019-05-30T02:58:50.060Z,98.61
2019-05-30T02:59:50.112Z,99.07
2019-05-30T03:00:50.038Z,98.76
2019-05-30T03:02:01.324Z,98.97
2019-05-30T03:02:51.013Z,98.86
2019-05-30T03:03:50.008Z,99.18
2019-05-30T03:04:49.991Z,98.76
2019-05-30T03:05:50.035Z,99.28
2019-05-30T03:06:49.970Z,98.93
2019-05-30T03:07:49.959Z,98.97
2019-05-30T03:08:49.947Z,99.38
2019-05-30T03:09:49.935Z,99.34
2019-05-30T03:10:49.930Z,99.99
2019-05-30T03:11:49.977Z,99.70
2019-05-30T03:12:49.905Z,99.70
2019-05-30T03:13:49.892Z,99.91
2019-05-30T03:14:49.882Z,99.91
2019-05-30T03:15:49.872Z,99.99
2019-05-30T03:16:49.861Z,99.99
2019-05-30T03:17:49.902Z,99.91
2019-05-30T03:18:49.835Z,99.99
2019-05-30T03:19:49.823Z,99.59
2019-05-30T03:20:49.813Z,99.99
2019-05-30T03:21:49.802Z,99.99
2019-05-30T03:22:49.795Z,99.99
2019-05-30T03:23:49.843Z,99.99
2019-05-30T03:24:49.772Z,99.99
2019-05-30T03:25:49.756Z,99.99
2019-05-30T03:26:49.743Z,99.99
2019-05-30T03:27:49.733Z,99.99
2019-05-30T03:28:53.354Z,99.99
2019-05-30T03:29:49.770Z,99.99
2019-05-30T03:30:49.704Z,99.99
2019-05-30T03:31:49.712Z,99.99
2019-05-30T03:33:19.386Z,99.99
2019-05-30T03:33:50.664Z,99.99
2019-05-30T03:34:49.656Z,99.99
2019-05-30T03:35:49.717Z,99.99
2019-05-30T03:36:49.644Z,99.99
2019-05-30T03:37:49.619Z,99.99
2019-05-30T03:38:49.674Z,99.99
2019-05-30T03:39:49.599Z,99.99
2019-05-30T03:40:49.586Z,99.99
2019-05-30T03:41:49.628Z,99.99
2019-05-30T03:42:49.564Z,99.84
2019-05-30T03:43:49.550Z,99.69
2019-05-30T03:44:49.539Z,99.48
2019-05-30T03:45:49.529Z,98.44
2019-05-30T03:46:49.514Z,98.44
2019-05-30T03:47:49.558Z,97.62
2019-05-30T03:48:49.498Z,97.99
2019-05-30T03:49:49.482Z,97.16
2019-05-30T03:50:49.471Z,96.64
2019-05-30T03:51:49.461Z,97.36
2019-05-30T03:52:49.450Z,97.47
2019-05-30T03:53:49.503Z,96.64
2019-05-30T03:54:49.428Z,95.81
2019-05-30T03:55:49.416Z,95.71
2019-05-30T03:56:49.409Z,94.78
2019-05-30T03:57:49.393Z,94.82
2019-05-30T03:58:49.382Z,94.41
2019-05-30T03:59:49.437Z,93.93
2019-05-30T04:00:51.260Z,93.93
2019-05-30T04:01:49.361Z,93.83
2019-05-30T04:02:57.062Z,94.14
2019-05-30T04:03:50.328Z,94.18
2019-05-30T04:04:49.318Z,93.46
2019-05-30T04:05:49.364Z,93.35
2019-05-30T04:06:49.292Z,93.46
2019-05-30T04:07:49.293Z,93.77
2019-05-30T04:08:49.285Z,93.46
2019-05-30T04:09:49.258Z,93.66
2019-05-30T04:10:49.247Z,94.29
2019-05-30T04:11:49.299Z,95.01
2019-05-30T04:12:49.230Z,95.12
2019-05-30T04:13:49.216Z,95.12
2019-05-30T04:14:49.203Z,95.74
2019-05-30T04:15:49.191Z,95.22
2019-05-30T04:16:49.188Z,95.32
2019-05-30T04:17:49.233Z,95.84
2019-05-30T04:18:49.161Z,96.36
2019-05-30T04:19:49.155Z,95.95
2019-05-30T04:20:49.135Z,96.47
2019-05-30T04:21:49.129Z,96.42
2019-05-30T04:22:49.114Z,96.42
2019-05-30T04:23:49.175Z,96.21
2019-05-30T04:24:49.092Z,95.90
2019-05-30T04:25:49.081Z,96.06
2019-05-30T04:26:49.071Z,95.86
2019-05-30T04:27:49.068Z,96.06
2019-05-30T04:28:49.049Z,96.37
2019-05-30T04:29:49.093Z,96.33
2019-05-30T04:30:49.024Z,96.12
2019-05-30T04:31:49.015Z,96.33
2019-05-30T04:32:49.003Z,96.29
2019-05-30T04:33:48.995Z,95.98
2019-05-30T04:34:48.978Z,95.98
2019-05-30T04:35:49.034Z,95.04
2019-05-30T04:36:53.151Z,95.21
2019-05-30T04:37:48.945Z,94.90
2019-05-30T04:38:48.966Z,95.00
2019-05-30T04:39:48.922Z,95.37
2019-05-30T04:40:48.910Z,95.10
2019-05-30T04:41:48.961Z,94.85
2019-05-30T04:42:48.894Z,95.89
2019-05-30T04:43:48.881Z,95.64
2019-05-30T04:44:48.865Z,95.12
2019-05-30T04:45:48.855Z,94.71
2019-05-30T04:46:48.853Z,94.09
2019-05-30T04:47:48.927Z,93.88
2019-05-30T04:48:48.822Z,93.57
2019-05-30T04:49:48.810Z,93.94
2019-05-30T04:50:48.802Z,94.67
2019-05-30T04:51:48.787Z,94.72
2019-05-30T04:52:48.773Z,95.65
2019-05-30T04:53:48.820Z,95.65
2019-05-30T04:54:48.752Z,95.09
2019-05-30T04:55:48.742Z,94.99
2019-05-30T04:56:48.729Z,94.89
2019-05-30T04:57:48.725Z,94.43
2019-05-30T04:58:48.709Z,94.84
2019-05-30T04:59:48.783Z,94.84
2019-05-30T05:00:48.685Z,95.42
2019-05-30T05:01:48.681Z,95.52
2019-05-30T05:02:48.669Z,94.55
2019-05-30T05:03:48.652Z,94.65
2019-05-30T05:04:48.642Z,93.58
2019-05-30T05:05:48.706Z,93.37
2019-05-30T05:06:48.618Z,94.51
2019-05-30T05:07:48.608Z,94.51
2019-05-30T05:08:48.597Z,93.37
2019-05-30T05:09:48.584Z,93.02
2019-05-30T05:10:48.579Z,92.61
2019-05-30T05:11:48.627Z,92.82
2019-05-30T05:12:50.255Z,94.42
2019-05-30T05:13:48.539Z,93.35
2019-05-30T05:14:48.528Z,93.24
2019-05-30T05:15:48.524Z,93.20
2019-05-30T05:16:48.504Z,93.20
2019-05-30T05:17:48.550Z,92.03
2019-05-30T05:18:48.485Z,89.97
2019-05-30T05:19:48.470Z,90.18
2019-05-30T05:20:48.459Z,89.25
2019-05-30T05:21:48.449Z,89.93
2019-05-30T05:22:48.436Z,89.83
2019-05-30T05:23:48.493Z,89.52
2019-05-30T05:24:48.414Z,90.30
2019-05-30T05:26:00.259Z,87.84
2019-05-30T05:26:49.392Z,87.63
2019-05-30T05:27:48.424Z,86.57
2019-05-30T05:28:48.395Z,87.45
2019-05-30T05:29:48.422Z,86.93
2019-05-30T05:30:48.346Z,87.30
2019-05-30T05:31:48.336Z,86.07
2019-05-30T05:32:48.325Z,85.42
2019-05-30T05:33:56.860Z,84.91
2019-05-30T05:34:52.019Z,85.31
2019-05-30T05:35:48.290Z,84.19
2019-05-30T05:36:48.280Z,83.27
2019-05-30T05:37:48.268Z,83.23
2019-05-30T05:38:48.255Z,83.23
2019-05-30T05:39:48.247Z,83.84
2019-05-30T05:40:48.295Z,84.66
2019-05-30T05:41:48.222Z,83.29
2019-05-30T05:42:48.211Z,85.44
2019-05-30T05:43:48.200Z,86.12
2019-05-30T05:44:48.188Z,84.38
2019-05-30T05:45:48.179Z,84.48
2019-05-30T05:46:48.240Z,82.84
2019-05-30T05:47:48.160Z,79.06
2019-05-30T05:48:48.147Z,76.26
2019-05-30T05:49:48.135Z,76.74
2019-05-30T05:50:48.122Z,77.01
2019-05-30T05:51:48.110Z,76.56
2019-05-30T05:52:48.159Z,75.61
2019-05-30T05:53:48.087Z,74.86
2019-05-30T05:54:48.077Z,72.82
2019-05-30T05:55:48.066Z,71.91
2019-05-30T05:56:48.052Z,71.56
2019-05-30T05:57:48.042Z,71.70
2019-05-30T05:58:48.086Z,67.97
2019-05-30T05:59:48.022Z,67.33
2019-05-30T06:00:48.009Z,65.19
2019-05-30T06:01:47.999Z,65.41
2019-05-30T06:02:47.984Z,64.33
2019-05-30T06:03:47.975Z,62.17
2019-05-30T06:04:48.040Z,61.16
2019-05-30T06:05:52.880Z,59.03
2019-05-30T06:06:48.950Z,61.20
2019-05-30T06:07:47.929Z,59.05
2019-05-30T06:08:47.920Z,60.48
2019-05-30T06:09:47.938Z,58.25
2019-05-30T06:10:47.949Z,58.43
2019-05-30T06:11:49.122Z,56.98
2019-05-30T06:12:48.123Z,56.40
2019-05-30T06:13:47.862Z,56.94
2019-05-30T06:14:47.854Z,57.01
2019-05-30T06:15:47.838Z,57.44
2019-05-30T06:16:47.892Z,57.75
2019-05-30T06:17:47.815Z,58.23
2019-05-30T06:18:47.813Z,58.20
2019-05-30T06:19:47.795Z,57.39
2019-05-30T06:20:47.784Z,57.79
2019-05-30T06:21:53.889Z,57.92
2019-05-30T06:22:48.830Z,57.29
2019-05-30T06:23:47.749Z,56.88
2019-05-30T06:24:47.740Z,56.88
2019-05-30T06:25:47.728Z,58.02
2019-05-30T06:26:47.716Z,59.47
2019-05-30T06:27:47.703Z,59.56
2019-05-30T06:28:47.759Z,59.94
2019-05-30T06:29:47.681Z,60.14
2019-05-30T06:30:47.673Z,60.14
2019-05-30T06:31:47.660Z,59.84
2019-05-30T06:32:47.649Z,58.60
2019-05-30T06:33:47.640Z,58.60
2019-05-30T06:34:47.693Z,58.00
2019-05-30T06:35:47.615Z,58.07
2019-05-30T06:36:47.610Z,57.94
2019-05-30T06:37:47.592Z,57.31
2019-05-30T06:38:47.582Z,57.74
2019-05-30T06:39:47.577Z,57.61
2019-05-30T06:40:47.627Z,56.17
2019-05-30T06:41:47.550Z,55.44
2019-05-30T06:42:47.539Z,55.04
2019-05-30T06:43:47.547Z,55.99
2019-05-30T06:44:47.518Z,55.29
2019-05-30T06:45:47.512Z,53.58
2019-05-30T06:46:47.556Z,53.67
2019-05-30T06:47:47.482Z,54.55
2019-05-30T06:48:47.474Z,53.22
2019-05-30T06:49:47.481Z,52.59
2019-05-30T06:50:47.449Z,52.17
2019-05-30T06:51:47.440Z,51.94
2019-05-30T06:52:47.492Z,52.12
2019-05-30T06:53:47.415Z,52.09
2019-05-30T06:54:47.403Z,50.68
2019-05-30T06:55:47.401Z,50.99
2019-05-30T06:56:47.381Z,51.14
2019-05-30T06:57:47.418Z,51.84
2019-05-30T06:58:49.057Z,52.14
2019-05-30T06:59:47.349Z,51.86
2019-05-30T07:00:47.336Z,52.64
2019-05-30T07:01:47.332Z,52.14
2019-05-30T07:02:47.326Z,52.24
2019-05-30T07:03:47.504Z,51.81
2019-05-30T07:04:51.938Z,51.79
2019-05-30T07:05:48.780Z,50.96
2019-05-30T07:06:47.500Z,50.44
2019-05-30T07:07:47.396Z,50.59
2019-05-30T07:08:47.248Z,49.87
2019-05-30T07:09:47.240Z,49.34
2019-05-30T07:10:47.291Z,47.99
2019-05-30T07:11:47.213Z,47.89
2019-05-30T07:12:47.201Z,48.82
2019-05-30T07:13:47.197Z,47.92
2019-05-30T07:14:47.179Z,47.31
2019-05-30T07:15:47.168Z,48.61
2019-05-30T07:16:47.218Z,47.19
2019-05-30T07:17:47.146Z,47.27
2019-05-30T07:18:47.141Z,47.27
2019-05-30T07:19:47.182Z,47.47
2019-05-30T07:20:47.111Z,47.77
2019-05-30T07:21:47.100Z,47.81
2019-05-30T07:22:47.144Z,47.31
2019-05-30T07:23:47.079Z,48.22
2019-05-30T07:24:47.068Z,48.10
2019-05-30T07:25:47.058Z,47.77
2019-05-30T07:26:47.043Z,46.97
2019-05-30T07:27:47.032Z,47.35
2019-05-30T07:28:47.079Z,45.75
2019-05-30T07:29:47.010Z,46.27
2019-05-30T07:30:47.016Z,44.49
2019-05-30T07:31:47.005Z,45.31
2019-05-30T07:32:46.979Z,47.94
2019-05-30T07:33:46.966Z,46.42
2019-05-30T07:34:47.014Z,44.67
2019-05-30T07:35:46.941Z,43.45
2019-05-30T07:36:46.931Z,45.25
2019-05-30T07:37:46.946Z,45.37
2019-05-30T07:38:46.908Z,44.85
2019-05-30T07:39:46.899Z,45.05
2019-05-30T07:40:46.943Z,43.75
2019-05-30T07:42:04.957Z,45.25
2019-05-30T07:42:47.865Z,45.47
2019-05-30T07:43:46.852Z,45.45
2019-05-30T07:44:46.843Z,43.53
2019-05-30T07:45:57.383Z,43.63
2019-05-30T07:46:47.883Z,43.09
2019-05-30T07:47:46.809Z,43.85
2019-05-30T07:48:46.818Z,44.03
2019-05-30T07:49:46.788Z,43.75
2019-05-30T07:50:46.779Z,43.83
2019-05-30T07:51:46.774Z,43.69
2019-05-30T07:52:46.816Z,41.88
2019-05-30T07:53:46.740Z,41.67
2019-05-30T07:54:46.738Z,42.03
2019-05-30T07:55:46.717Z,43.85
2019-05-30T07:56:46.708Z,43.63
2019-05-30T07:57:46.697Z,41.41
2019-05-30T07:58:46.767Z,41.38
2019-05-30T07:59:46.673Z,40.68
2019-05-30T08:00:46.705Z,42.47
2019-05-30T08:01:46.653Z,41.16
2019-05-30T08:02:46.638Z,40.28
2019-05-30T08:03:46.632Z,40.80
2019-05-30T08:04:47.108Z,41.58
2019-05-30T08:05:46.605Z,41.30
2019-05-30T08:06:46.623Z,42.19
2019-05-30T08:07:46.585Z,41.08
2019-05-30T08:08:46.576Z,41.06
2019-05-30T08:09:46.560Z,40.94
2019-05-30T08:10:46.611Z,40.94
2019-05-30T08:11:46.543Z,41.46
2019-05-30T08:12:46.530Z,40.66
2019-05-30T08:13:46.520Z,40.32
2019-05-30T08:14:46.565Z,39.72
2019-05-30T08:15:46.492Z,39.72
2019-05-30T08:16:46.547Z,41.75
2019-05-30T08:17:46.477Z,40.98
2019-05-30T08:18:46.461Z,41.19
2019-05-30T08:19:46.450Z,41.31
2019-05-30T08:20:46.451Z,41.96
2019-05-30T08:21:46.426Z,41.36
2019-05-30T08:22:46.499Z,43.73
2019-05-30T08:23:46.406Z,41.60
2019-05-30T08:24:46.392Z,42.89
2019-05-30T08:25:46.382Z,41.50
2019-05-30T08:26:46.395Z,41.77
2019-05-30T08:27:46.363Z,40.84
2019-05-30T08:28:46.416Z,42.79
2019-05-30T08:29:46.339Z,41.25
2019-05-30T08:30:46.333Z,40.62
2019-05-30T08:31:46.316Z,40.22
2019-05-30T08:32:46.321Z,41.08
2019-05-30T08:33:47.446Z,40.18
2019-05-30T08:34:46.348Z,37.88
2019-05-30T08:35:49.939Z,38.47
2019-05-30T08:36:46.272Z,38.39
2019-05-30T08:37:46.279Z,39.48
2019-05-30T08:38:48.206Z,41.00
2019-05-30T08:39:46.237Z,41.24
2019-05-30T08:40:46.287Z,40.50
2019-05-30T08:41:46.204Z,39.69
2019-05-30T08:42:46.213Z,37.41
2019-05-30T08:43:46.183Z,36.12
2019-05-30T08:44:46.171Z,37.73
2019-05-30T08:45:46.163Z,37.43
2019-05-30T08:46:46.216Z,38.33
2019-05-30T08:47:46.139Z,38.01
2019-05-30T08:48:46.127Z,36.90
2019-05-30T08:49:46.120Z,36.38
2019-05-30T08:50:46.106Z,37.38
2019-05-30T08:51:46.116Z,39.47
2019-05-30T08:52:46.180Z,36.68
2019-05-30T08:53:46.069Z,38.09
2019-05-30T08:54:46.063Z,37.49
2019-05-30T08:55:46.045Z,36.92
2019-05-30T08:56:46.091Z,37.79
2019-05-30T08:57:46.025Z,37.08
2019-05-30T08:58:46.073Z,38.18
2019-05-30T08:59:46.001Z,37.52
2019-05-30T09:00:45.994Z,35.13
2019-05-30T09:01:47.125Z,35.95
2019-05-30T09:02:46.933Z,36.27
2019-05-30T09:03:46.320Z,36.10
2019-05-30T09:04:46.086Z,36.04
2019-05-30T09:05:59.242Z,37.63
2019-05-30T09:06:46.923Z,36.82
2019-05-30T09:07:46.317Z,36.80
2019-05-30T09:08:46.360Z,36.27
2019-05-30T09:09:46.396Z,37.06
2019-05-30T09:10:46.491Z,37.60
2019-05-30T09:11:46.373Z,38.20
2019-05-30T09:12:49.372Z,37.56
2019-05-30T09:13:46.737Z,37.46
2019-05-30T09:14:46.940Z,37.49
2019-05-30T09:15:46.981Z,37.48
2019-05-30T09:16:46.519Z,37.58
2019-05-30T09:17:46.748Z,37.34
2019-05-30T09:18:45.798Z,36.81
2019-05-30T09:19:45.782Z,36.71
2019-05-30T09:20:45.790Z,35.14
2019-05-30T09:21:45.758Z,35.97
2019-05-30T09:22:45.819Z,34.52
2019-05-30T09:23:46.256Z,36.57
2019-05-30T09:24:46.124Z,37.34
2019-05-30T09:25:48.241Z,36.78
2019-05-30T09:26:48.491Z,37.48
2019-05-30T09:27:46.680Z,36.96
2019-05-30T09:28:46.282Z,37.41
2019-05-30T09:29:46.220Z,34.71
2019-05-30T09:30:46.502Z,35.04
2019-05-30T09:31:46.715Z,36.25
2019-05-30T09:32:46.832Z,36.55
2019-05-30T09:33:46.659Z,37.43
2019-05-30T09:34:46.877Z,37.04
2019-05-30T09:35:46.932Z,36.55
2019-05-30T09:36:46.856Z,35.64
2019-05-30T09:37:45.974Z,35.34
2019-05-30T09:38:45.576Z,35.52
2019-05-30T09:39:45.616Z,36.11
2019-05-30T09:40:45.614Z,34.50
2019-05-30T09:41:45.775Z,34.61
2019-05-30T09:42:46.940Z,35.83
2019-05-30T09:43:46.377Z,35.94
2019-05-30T09:44:48.944Z,35.97
2019-05-30T09:45:46.568Z,36.65
2019-05-30T09:46:46.864Z,35.24
2019-05-30T09:47:47.173Z,36.02
2019-05-30T09:48:46.574Z,34.91
2019-05-30T09:49:46.538Z,34.69
2019-05-30T09:50:46.693Z,35.52
2019-05-30T09:51:46.911Z,35.50
2019-05-30T09:52:45.451Z,34.89
2019-05-30T09:53:45.967Z,35.97
2019-05-30T09:54:45.920Z,34.22
2019-05-30T09:55:46.189Z,34.92
2019-05-30T09:56:46.353Z,34.45
2019-05-30T09:57:45.894Z,34.92
2019-05-30T09:58:46.073Z,33.34
2019-05-30T09:59:46.626Z,34.31
2019-05-30T10:00:46.667Z,33.37
2019-05-30T10:01:46.034Z,33.94
2019-05-30T10:02:46.607Z,35.13
2019-05-30T10:03:46.491Z,35.09
2019-05-30T10:04:46.817Z,34.48
2019-05-30T10:05:46.941Z,35.39
2019-05-30T10:06:46.292Z,35.71
2019-05-30T10:07:45.921Z,36.08
2019-05-30T10:08:46.593Z,35.21
2019-05-30T10:09:45.688Z,35.19
2019-05-30T10:10:45.708Z,34.40
2019-05-30T10:11:45.605Z,38.07
2019-05-30T10:12:46.524Z,37.63
2019-05-30T10:13:46.342Z,36.10
2019-05-30T10:14:46.581Z,35.99
2019-05-30T10:15:45.751Z,34.86
2019-05-30T10:16:47.852Z,34.92
2019-05-30T10:17:47.631Z,34.20
2019-05-30T10:18:46.090Z,35.07
2019-05-30T10:19:45.991Z,34.00
2019-05-30T10:20:46.284Z,34.43
2019-05-30T10:21:46.091Z,35.03
2019-05-30T10:22:48.282Z,34.92
2019-05-30T10:23:47.192Z,34.74
2019-05-30T10:24:46.228Z,35.03
2019-05-30T10:25:46.588Z,34.25
2019-05-30T10:26:46.127Z,35.14
2019-05-30T10:27:46.425Z,34.96
2019-05-30T10:28:46.104Z,36.25
2019-05-30T10:29:47.290Z,35.72
2019-05-30T10:30:48.293Z,35.69
2019-05-30T10:31:46.476Z,35.16
2019-05-30T10:32:46.537Z,35.83
2019-05-30T10:33:46.289Z,33.73
2019-05-30T10:34:46.163Z,33.26
2019-05-30T10:35:46.103Z,33.95
2019-05-30T10:36:47.200Z,32.64
2019-05-30T10:37:45.781Z,32.62
2019-05-30T10:38:45.430Z,31.88
2019-05-30T10:39:46.978Z,31.87
2019-05-30T10:40:45.629Z,33.29
2019-05-30T10:41:46.247Z,33.33
2019-05-30T10:42:46.168Z,34.97
2019-05-30T10:43:45.974Z,34.66
2019-05-30T10:44:46.066Z,33.78
2019-05-30T10:45:46.188Z,33.26
2019-05-30T10:46:47.037Z,35.21
2019-05-30T10:47:45.894Z,33.11
2019-05-30T10:48:47.290Z,33.49
2019-05-30T10:49:45.299Z,31.51
2019-05-30T10:50:46.847Z,32.88
2019-05-30T10:51:46.179Z,30.71
2019-05-30T10:52:45.337Z,30.38
2019-05-30T10:53:45.486Z,33.13
2019-05-30T10:54:45.035Z,32.34
2019-05-30T10:55:45.298Z,32.92
2019-05-30T10:56:45.132Z,31.34
2019-05-30T10:57:45.214Z,29.99
2019-05-30T10:58:46.530Z,32.02
2019-05-30T10:59:46.138Z,34.78
2019-05-30T11:00:45.643Z,36.00
2019-05-30T11:01:46.612Z,34.76
2019-05-30T11:02:46.071Z,33.94
2019-05-30T11:03:45.837Z,33.64
2019-05-30T11:04:45.946Z,33.83
2019-05-30T11:05:44.656Z,34.40
2019-05-30T11:07:01.264Z,31.77
2019-05-30T11:07:55.088Z,32.58
2019-05-30T11:08:46.173Z,31.76
2019-05-30T11:09:44.611Z,32.56
2019-05-30T11:10:44.609Z,33.33
2019-05-30T11:11:44.592Z,34.76
2019-05-30T11:12:44.589Z,36.25
2019-05-30T11:13:44.571Z,36.62
2019-05-30T11:14:44.613Z,37.45
2019-05-30T11:15:44.554Z,38.37
2019-05-30T11:16:44.538Z,37.75
2019-05-30T11:17:44.528Z,37.63
2019-05-30T11:18:44.517Z,37.65
2019-05-30T11:19:44.507Z,37.45
2019-05-30T11:20:44.550Z,39.78
2019-05-30T11:21:44.483Z,41.02
2019-05-30T11:22:44.474Z,40.75
2019-05-30T11:23:44.462Z,41.67
2019-05-30T11:24:44.454Z,41.69
2019-05-30T11:25:44.440Z,40.68
2019-05-30T11:26:44.492Z,38.45
2019-05-30T11:27:44.426Z,36.98
2019-05-30T11:28:44.409Z,34.76
2019-05-30T11:29:44.396Z,33.01
2019-05-30T11:30:44.411Z,34.58
2019-05-30T11:31:44.375Z,33.85
2019-05-30T11:32:44.431Z,33.04
2019-05-30T11:33:44.355Z,33.29
2019-05-30T11:34:44.349Z,32.19
2019-05-30T11:35:44.334Z,34.69
2019-05-30T11:36:44.323Z,34.51
2019-05-30T11:37:44.311Z,34.10
2019-05-30T11:38:44.364Z,34.58
2019-05-30T11:39:44.294Z,33.58
2019-05-30T11:40:44.281Z,32.40
2019-05-30T11:41:44.270Z,33.82
2019-05-30T11:42:44.259Z,30.95
2019-05-30T11:43:44.251Z,31.91
2019-05-30T11:44:44.312Z,33.20
2019-05-30T11:45:44.228Z,33.59
2019-05-30T11:46:44.217Z,31.99
2019-05-30T11:47:44.207Z,31.70
2019-05-30T11:48:44.197Z,30.44
2019-05-30T11:49:44.189Z,31.91
2019-05-30T11:50:44.285Z,32.90
2019-05-30T11:51:44.166Z,31.99
2019-05-30T11:52:44.155Z,32.68
2019-05-30T11:53:44.151Z,32.19
2019-05-30T11:54:44.133Z,31.38
2019-05-30T11:55:44.123Z,31.79
2019-05-30T11:56:44.173Z,32.06
2019-05-30T11:57:44.100Z,31.92
2019-05-30T11:58:44.089Z,31.62
2019-05-30T11:59:44.078Z,32.16
2019-05-30T12:00:44.068Z,34.95
2019-05-30T12:01:44.068Z,35.03
2019-05-30T12:02:44.113Z,36.33
2019-05-30T12:03:44.037Z,36.08
2019-05-30T12:04:44.027Z,34.63
2019-05-30T12:05:44.015Z,33.29
2019-05-30T12:06:44.008Z,33.06
2019-05-30T12:07:43.997Z,33.25
2019-05-30T12:08:44.044Z,32.82
2019-05-30T12:09:43.976Z,32.93
2019-05-30T12:10:43.968Z,31.95
2019-05-30T12:11:44.016Z,31.85
2019-05-30T12:12:43.946Z,33.09
2019-05-30T12:13:44.006Z,34.86
2019-05-30T12:14:43.986Z,35.90
2019-05-30T12:15:43.916Z,37.72
2019-05-30T12:16:43.904Z,38.28
2019-05-30T12:17:43.936Z,37.68
2019-05-30T12:18:43.882Z,39.67
2019-05-30T12:19:43.890Z,38.29
2019-05-30T12:20:43.926Z,40.42
2019-05-30T12:21:43.853Z,40.72
2019-05-30T12:22:43.839Z,41.74
2019-05-30T12:23:43.829Z,41.08
2019-05-30T12:24:43.820Z,40.80
2019-05-30T12:25:43.888Z,41.09
2019-05-30T12:26:43.862Z,40.80
2019-05-30T12:27:43.786Z,41.25
2019-05-30T12:28:43.775Z,41.58
2019-05-30T12:29:43.765Z,41.60
2019-05-30T12:30:56.010Z,40.72
2019-05-30T12:31:44.817Z,41.11
2019-05-30T12:32:43.730Z,40.72
2019-05-30T12:33:43.732Z,40.98
2019-05-30T12:34:43.709Z,40.78
2019-05-30T12:35:43.700Z,40.90
2019-05-30T12:36:43.687Z,39.89
2019-05-30T12:37:54.265Z,39.78
2019-05-30T12:38:44.665Z,38.18
2019-05-30T12:39:43.654Z,39.97
2019-05-30T12:40:43.644Z,39.50
2019-05-30T12:41:43.635Z,40.20
2019-05-30T12:42:43.673Z,40.18
2019-05-30T12:43:43.676Z,38.43
2019-05-30T12:44:43.599Z,37.30
2019-05-30T12:45:43.592Z,37.95
2019-05-30T12:46:43.581Z,36.19
2019-05-30T12:47:43.568Z,34.97
2019-05-30T12:48:43.560Z,34.34
2019-05-30T12:49:43.606Z,31.78
2019-05-30T12:50:43.536Z,32.14
2019-05-30T12:51:43.526Z,32.60